createdAt,value
2018-08-04T00:01:32.552Z,13.10
2018-08-04T00:05:36.091Z,13.10
2018-08-04T00:09:39.621Z,13.75
2018-08-04T00:13:43.151Z,13.78
2018-08-04T00:17:47.838Z,13.18
2018-08-04T00:21:51.325Z,12.70
2018-08-04T00:25:55.120Z,14.28
2018-08-04T00:29:58.695Z,13.75
2018-08-04T00:34:02.150Z,13.48
2018-08-04T00:38:06.038Z,14.03
2018-08-04T00:42:11.634Z,13.18
2018-08-04T00:46:15.339Z,13.68
2018-08-04T00:50:18.849Z,13.20
2018-08-04T00:54:22.327Z,14.25
2018-08-04T00:58:25.849Z,14.13
2018-08-04T01:02:29.334Z,13.80
2018-08-04T01:06:32.768Z,13.95
2018-08-04T01:10:36.374Z,13.45
2018-08-04T01:14:39.867Z,14.83
2018-08-04T01:18:43.395Z,15.38
2018-08-04T01:22:46.937Z,15.38
2018-08-04T01:26:50.454Z,14.85
2018-08-04T01:30:53.982Z,14.93
2018-08-04T01:34:57.469Z,15.08
2018-08-04T01:39:01.002Z,15.15
2018-08-04T01:43:04.490Z,14.18
2018-08-04T01:47:08.005Z,13.08
2018-08-04T01:51:11.470Z,13.93
2018-08-04T01:55:14.951Z,13.40
2018-08-04T01:59:20.147Z,12.73
2018-08-04T02:03:24.856Z,12.30
2018-08-04T02:07:28.579Z,12.90
2018-08-04T02:11:32.146Z,12.37
2018-08-04T02:15:35.859Z,12.37
2018-08-04T02:19:39.531Z,11.50
2018-08-04T02:23:43.082Z,10.50
2018-08-04T02:27:46.596Z,11.03
2018-08-04T02:31:50.123Z,9.93
2018-08-04T02:35:53.689Z,10.13
2018-08-04T02:39:57.209Z,9.65
2018-08-04T02:44:00.703Z,10.23
2018-08-04T02:48:04.194Z,9.60
2018-08-04T02:52:07.708Z,10.03
2018-08-04T02:56:11.244Z,10.13
2018-08-04T03:00:14.730Z,9.65
2018-08-04T03:04:18.208Z,9.58
2018-08-04T03:08:21.722Z,10.80
2018-08-04T03:12:25.180Z,10.10
2018-08-04T03:16:28.652Z,9.60
2018-08-04T03:20:32.144Z,10.53
2018-08-04T03:24:35.689Z,11.12
2018-08-04T03:28:39.100Z,10.88
2018-08-04T03:32:42.641Z,11.08
2018-08-04T03:36:46.109Z,11.28
2018-08-04T03:40:49.632Z,11.25
2018-08-04T03:44:53.091Z,11.95
2018-08-04T03:48:56.599Z,10.65
2018-08-04T03:53:00.163Z,10.48
2018-08-04T03:57:03.703Z,11.50
2018-08-04T04:01:07.198Z,11.83
2018-08-04T04:05:10.671Z,11.88
2018-08-04T04:09:14.107Z,12.20
2018-08-04T04:13:17.707Z,11.45
2018-08-04T04:17:21.217Z,10.88
2018-08-04T04:21:24.814Z,10.80
2018-08-04T04:25:28.290Z,10.40
2018-08-04T04:29:31.795Z,10.85
2018-08-04T04:33:35.250Z,10.63
2018-08-04T04:37:38.733Z,10.98
2018-08-04T04:41:42.223Z,11.70
2018-08-04T04:45:45.746Z,11.10
2018-08-04T04:49:49.287Z,9.83
2018-08-04T04:53:52.766Z,9.58
2018-08-04T04:57:56.235Z,9.60
2018-08-04T05:01:59.809Z,9.73
2018-08-04T05:06:03.576Z,9.45
2018-08-04T05:10:07.412Z,10.00
2018-08-04T05:14:10.835Z,10.53
2018-08-04T05:18:14.324Z,11.80
2018-08-04T05:22:17.835Z,11.40
2018-08-04T05:26:21.341Z,10.85
2018-08-04T05:30:24.849Z,11.08
2018-08-04T05:34:28.373Z,10.82
2018-08-04T05:38:31.877Z,11.12
2018-08-04T05:42:35.494Z,12.05
2018-08-04T05:46:39.027Z,11.90
2018-08-04T05:50:42.598Z,11.57
2018-08-04T05:54:46.156Z,12.47
2018-08-04T05:58:49.659Z,11.18
2018-08-04T06:02:53.149Z,11.20
2018-08-04T06:06:56.646Z,10.30
2018-08-04T06:11:00.430Z,11.10
2018-08-04T06:15:03.967Z,11.00
2018-08-04T06:19:07.451Z,11.20
2018-08-04T06:23:10.926Z,10.10
2018-08-04T06:27:14.480Z,10.80
2018-08-04T06:31:18.012Z,10.82
2018-08-04T06:35:21.501Z,10.88
2018-08-04T06:39:24.992Z,9.90
2018-08-04T06:43:28.532Z,10.32
2018-08-04T06:47:32.076Z,10.32
2018-08-04T06:51:35.601Z,10.80
2018-08-04T06:55:39.125Z,10.70
2018-08-04T06:59:42.646Z,10.72
2018-08-04T07:03:46.185Z,11.28
2018-08-04T07:07:49.728Z,11.80
2018-08-04T07:11:53.336Z,11.50
2018-08-04T07:15:56.903Z,12.75
2018-08-04T07:20:00.421Z,12.03
2018-08-04T07:24:04.045Z,11.43
2018-08-04T07:28:07.550Z,12.90
2018-08-04T07:32:11.055Z,12.40
2018-08-04T07:36:14.598Z,11.57
2018-08-04T07:40:18.093Z,13.13
2018-08-04T07:44:22.463Z,13.32
2018-08-04T07:48:26.005Z,13.60
2018-08-04T07:52:29.772Z,13.95
2018-08-04T07:56:33.386Z,12.60
2018-08-04T08:00:36.927Z,13.68
2018-08-04T08:04:41.252Z,13.58
2018-08-04T08:08:45.130Z,14.53
2018-08-04T08:12:49.113Z,13.48
2018-08-04T08:16:52.798Z,14.05
2018-08-04T08:20:56.689Z,14.38
2018-08-04T08:25:00.676Z,13.55
2018-08-04T08:29:04.575Z,14.20
2018-08-04T08:33:08.399Z,13.98
2018-08-04T08:37:12.315Z,14.05
2018-08-04T08:41:16.097Z,15.32
2018-08-04T08:45:20.105Z,13.80
2018-08-04T08:49:24.020Z,14.10
2018-08-04T08:53:27.721Z,13.90
2018-08-04T08:57:31.247Z,13.95
2018-08-04T09:01:34.867Z,14.23
2018-08-04T09:05:38.367Z,14.93
2018-08-04T09:09:41.877Z,14.15
2018-08-04T09:13:45.546Z,14.73
2018-08-04T09:17:49.120Z,14.65
2018-08-04T09:21:52.854Z,14.55
2018-08-04T09:25:56.468Z,13.25
2018-08-04T09:29:59.982Z,13.72
2018-08-04T09:34:03.510Z,12.78
2018-08-04T09:38:07.091Z,13.38
2018-08-04T09:42:10.801Z,13.43
2018-08-04T09:46:14.330Z,12.68
2018-08-04T09:50:17.871Z,13.28
2018-08-04T09:54:21.633Z,12.78
2018-08-04T09:58:25.342Z,12.45
2018-08-04T10:02:29.013Z,13.13
2018-08-04T10:06:32.503Z,12.58
2018-08-04T10:10:36.065Z,12.55
2018-08-04T10:14:39.451Z,12.05
2018-08-04T10:18:42.991Z,13.08
2018-08-04T10:22:46.392Z,12.03
2018-08-04T10:26:49.819Z,12.85
2018-08-04T10:30:53.235Z,11.65
2018-08-04T10:34:56.629Z,12.00
2018-08-04T10:39:00.079Z,10.93
2018-08-04T10:43:03.532Z,10.65
2018-08-04T10:47:07.032Z,11.05
2018-08-04T10:51:10.468Z,11.10
2018-08-04T10:55:13.953Z,9.85
2018-08-04T10:59:17.373Z,9.70
2018-08-04T11:03:20.807Z,10.00
2018-08-04T11:07:24.301Z,9.63
2018-08-04T11:11:27.877Z,10.55
2018-08-04T11:15:31.333Z,9.93
2018-08-04T11:19:34.860Z,9.43
2018-08-04T11:23:38.287Z,9.68
2018-08-04T11:27:41.718Z,10.55
2018-08-04T11:31:45.186Z,9.63
2018-08-04T11:35:48.619Z,9.48
2018-08-04T11:39:51.988Z,8.75
2018-08-04T11:43:55.403Z,8.78
2018-08-04T11:47:58.815Z,8.53
2018-08-04T11:52:02.291Z,8.20
2018-08-04T11:56:05.920Z,8.13
2018-08-04T12:00:09.380Z,7.70
2018-08-04T12:04:12.959Z,8.13
2018-08-04T12:08:16.630Z,8.20
2018-08-04T12:12:20.138Z,8.38
2018-08-04T12:16:23.628Z,7.75
2018-08-04T12:20:27.053Z,8.03
2018-08-04T12:24:30.634Z,7.85
2018-08-04T12:28:34.134Z,7.97
2018-08-04T12:32:37.974Z,7.60
2018-08-04T12:36:41.463Z,7.30
2018-08-04T12:40:45.174Z,7.62
2018-08-04T12:44:48.612Z,7.55
2018-08-04T12:48:52.143Z,7.80
2018-08-04T12:52:55.628Z,7.28
2018-08-04T12:56:59.077Z,7.80
2018-08-04T13:01:02.542Z,7.12
2018-08-04T13:05:06.460Z,7.17
2018-08-04T13:09:10.973Z,7.20
2018-08-04T13:13:14.480Z,7.08
2018-08-04T13:17:17.894Z,6.85
2018-08-04T13:21:21.443Z,7.12
2018-08-04T13:25:25.029Z,7.17
2018-08-04T13:29:28.595Z,6.62
2018-08-04T13:33:32.036Z,7.10
2018-08-04T13:37:35.635Z,6.87
2018-08-04T13:41:40.049Z,6.55
2018-08-04T13:45:43.559Z,6.65
2018-08-04T13:49:46.986Z,6.50
2018-08-04T13:53:50.428Z,6.33
2018-08-04T13:57:53.956Z,6.10
2018-08-04T14:01:57.405Z,5.95
2018-08-04T14:06:00.995Z,6.45
2018-08-04T14:10:04.425Z,6.25
2018-08-04T14:14:08.008Z,6.28
2018-08-04T14:18:11.514Z,6.25
2018-08-04T14:22:14.979Z,6.20
2018-08-04T14:26:18.509Z,5.72
2018-08-04T14:30:22.042Z,5.90
2018-08-04T14:34:25.479Z,6.47
2018-08-04T14:38:28.901Z,6.12
2018-08-04T14:42:32.411Z,5.85
2018-08-04T14:46:36.056Z,6.22
2018-08-04T14:50:39.547Z,6.10
2018-08-04T14:54:43.011Z,6.22
2018-08-04T14:58:46.448Z,6.22
2018-08-04T15:02:49.899Z,5.90
2018-08-04T15:06:53.348Z,6.10
2018-08-04T15:10:56.801Z,6.58
2018-08-04T15:15:00.257Z,5.90
2018-08-04T15:19:04.136Z,6.20
2018-08-04T15:23:07.555Z,6.40
2018-08-04T15:27:11.040Z,6.58
2018-08-04T15:31:14.514Z,6.25
2018-08-04T15:35:17.964Z,6.12
2018-08-04T15:39:21.415Z,6.12
2018-08-04T15:43:24.894Z,6.22
2018-08-04T15:47:28.325Z,6.35
2018-08-04T15:51:31.798Z,6.47
2018-08-04T15:55:35.231Z,6.55
2018-08-04T15:59:38.615Z,6.50
2018-08-04T16:03:42.037Z,6.70
2018-08-04T16:07:45.473Z,6.45
2018-08-04T16:11:48.881Z,5.87
2018-08-04T16:15:52.353Z,7.03
2018-08-04T16:19:55.761Z,6.50
2018-08-04T16:23:59.199Z,5.97
2018-08-04T16:28:02.680Z,5.80
2018-08-04T16:32:06.127Z,6.40
2018-08-04T16:36:09.496Z,6.60
2018-08-04T16:40:12.925Z,6.20
2018-08-04T16:44:16.405Z,8.43
2018-08-04T16:48:19.898Z,6.55
2018-08-04T16:52:23.268Z,5.65
2018-08-04T16:56:26.697Z,6.55
2018-08-04T17:00:30.132Z,6.03
2018-08-04T17:04:33.807Z,6.00
2018-08-04T17:08:37.212Z,6.62
2018-08-04T17:12:40.647Z,6.30
2018-08-04T17:16:44.109Z,6.22
2018-08-04T17:20:47.533Z,6.00
2018-08-04T17:24:50.992Z,6.35
2018-08-04T17:28:54.604Z,6.53
2018-08-04T17:32:58.183Z,6.22
2018-08-04T17:37:01.626Z,6.12
2018-08-04T17:41:05.049Z,6.30
2018-08-04T17:45:08.444Z,6.40
2018-08-04T17:49:11.852Z,6.22
2018-08-04T17:53:15.271Z,6.35
2018-08-04T17:57:18.719Z,7.10
2018-08-04T18:01:22.120Z,6.70
2018-08-04T18:05:25.533Z,6.87
2018-08-04T18:09:29.025Z,7.20
2018-08-04T18:13:32.426Z,6.65
2018-08-04T18:17:36.008Z,7.00
2018-08-04T18:21:39.477Z,7.37
2018-08-04T18:25:42.923Z,7.90
2018-08-04T18:29:46.561Z,8.40
2018-08-04T18:33:49.998Z,8.18
2018-08-04T18:37:53.563Z,8.20
2018-08-04T18:41:57.031Z,7.80
2018-08-04T18:46:00.625Z,8.13
2018-08-04T18:50:04.182Z,8.73
2018-08-04T18:54:07.926Z,7.83
2018-08-04T18:58:11.847Z,9.70
2018-08-04T19:02:15.727Z,7.87
2018-08-04T19:06:19.515Z,7.90
2018-08-04T19:10:23.332Z,7.60
2018-08-04T19:14:26.766Z,7.20
2018-08-04T19:18:30.301Z,7.53
2018-08-04T19:22:34.317Z,7.60
2018-08-04T19:26:38.066Z,8.83
2018-08-04T19:30:41.746Z,9.40
2018-08-04T19:34:46.205Z,8.35
2018-08-04T19:38:49.911Z,8.25
2018-08-04T19:42:53.588Z,8.45
2018-08-04T19:46:57.276Z,8.33
2018-08-04T19:51:00.966Z,8.40
2018-08-04T19:55:04.735Z,9.53
2018-08-04T19:59:08.479Z,18.17
2018-08-04T20:03:12.172Z,12.78
2018-08-04T20:07:15.944Z,9.43
2018-08-04T20:11:19.664Z,8.30
2018-08-04T20:15:23.410Z,8.30
2018-08-04T20:19:27.132Z,8.63
2018-08-04T20:23:30.896Z,13.70
2018-08-04T20:27:34.618Z,10.20
2018-08-04T20:31:38.451Z,8.90
2018-08-04T20:35:42.190Z,8.25
2018-08-04T20:39:45.988Z,8.05
2018-08-04T20:43:49.742Z,8.03
2018-08-04T20:47:53.703Z,8.15
2018-08-04T20:51:57.463Z,8.13
2018-08-04T20:56:01.476Z,12.10
2018-08-04T21:00:05.839Z,10.98
2018-08-04T21:04:09.685Z,8.35
2018-08-04T21:08:13.635Z,8.33
2018-08-04T21:12:17.702Z,10.23
2018-08-04T21:16:21.400Z,14.07
2018-08-04T21:20:24.917Z,15.53
2018-08-04T21:24:28.389Z,9.88
2018-08-04T21:28:31.881Z,8.30
2018-08-04T21:32:35.405Z,8.10
2018-08-04T21:36:38.919Z,8.40
2018-08-04T21:40:42.431Z,8.35
2018-08-04T21:44:45.914Z,7.85
2018-08-04T21:48:49.511Z,10.00
2018-08-04T21:52:53.083Z,8.88
2018-08-04T21:56:56.612Z,8.25
2018-08-04T22:01:05.264Z,9.15
2018-08-04T22:05:08.755Z,9.63
2018-08-04T22:09:18.963Z,11.03
2018-08-04T22:13:22.447Z,8.63
2018-08-04T22:17:25.916Z,8.55
2018-08-04T22:21:29.432Z,7.95
2018-08-04T22:25:32.920Z,8.15
2018-08-04T22:29:36.395Z,8.23
2018-08-04T22:33:39.894Z,7.72
2018-08-04T22:37:43.502Z,7.72
2018-08-04T22:41:47.016Z,8.10
2018-08-04T22:46:15.276Z,7.65
2018-08-04T22:50:18.791Z,8.68
2018-08-04T22:54:22.245Z,8.75
2018-08-04T22:58:25.814Z,8.43
2018-08-04T23:02:29.369Z,8.98
2018-08-04T23:06:32.877Z,8.63
2018-08-04T23:10:40.976Z,9.00
2018-08-04T23:14:44.534Z,9.18
2018-08-04T23:18:48.011Z,9.73
2018-08-04T23:22:51.532Z,9.88
2018-08-04T23:26:55.095Z,10.30
2018-08-04T23:30:58.593Z,10.55
2018-08-04T23:35:02.169Z,11.65
2018-08-04T23:39:07.532Z,15.55
2018-08-04T23:43:10.994Z,12.23
2018-08-04T23:47:14.498Z,11.80
2018-08-04T23:51:17.979Z,11.57
2018-08-04T23:55:21.443Z,10.72
2018-08-04T23:59:24.974Z,10.90
